Impacts TAF Board
For situational awareness. Not to be used for flight planning purposes.
IDs:

KDVT - Phoenix/Deer Valley, AZ, US

Issued at 1720 UTC 01 Feb 2023
Updated at 2159 UTC 01 Feb 2023
Potential Impact None Slight Moderate High
Time2153Z 01/22Z 01/23Z 02/00Z 02/01Z 02/02Z 02/03Z 02/04Z 02/05Z 02/06Z 02/07Z 02/08Z 02/09Z 02/10Z>>
Type OBS PRVL PRVL PRVL PRVL PRVL PRVL PRVL PRVL PRVL PRVL PRVL PRVL PRVL
VIS 10 >6 >6 >6 >6 >6 >6 >6 >6 >6 >6 >6 >6 >6
CIG -- -- -- -- -- -- -- -- -- -- -- -- -- --
Cover CLR SKC SKC SKC SKC SKC SKC SKC SKC SKC SKC SKC SKC SKC
FltCat VFR VFR VFR VFR VFR VFR VFR VFR VFR VFR VFR VFR VFR VFR
WX -- -- -- -- -- -- -- -- -- -- -- -- -- --
WDir VRB 250 250 250 250 250 250 30 30 30 30 30 30 30
WSpd 6 6 6 6 6 6 6 4 4 4 4 4 4 4
WGst -- -- -- -- -- -- -- -- -- -- -- -- -- --
WSHgt -- -- -- -- -- -- -- -- -- -- -- -- -- --
WSDir -- -- -- -- -- -- -- -- -- -- -- -- -- --
WSSpd -- -- -- -- -- -- -- -- -- -- -- -- -- --
R07/25
XWnd VRB -2 -2 -2 -2 -2 -2 3 3 3 3 3 3 3
HWnd VRB -6 -6 -6 -6 -6 -6 2 2 2 2 2 2 2

NOTE: LAMP data beyond the time of the TAF data is denoted as LAMP in Type and colored magenta.

Raw TAF
KDVT 011720Z 0118/0218 VRB04KT P6SM FEW100
  FM012100 25006KT P6SM SKC
  FM020400 03004KT P6SM SKC


Raw METAR
KDVT 012153Z VRB06KT 10SM CLR 19/M05 A3003 RMK AO2 SLP159 T01891050
KDVT 012053Z 10SM CLR 18/M05 A3003 RMK AO2 SLP161 T01831050 56025
KDVT 011953Z 10SM CLR 18/M04 A3005 RMK AO2 SLP167 T01781044
KDVT 011853Z VRB04KT 10SM CLR 17/M04 A3008 RMK AO2 SLP179 T01721044

METAR Board
Radar Display
Forecast Discussion

For situational awareness. Not to be used for flight planning purposes.